createdAt,value
2018-12-06T00:03:38.908Z,84.81
2018-12-06T00:08:24.159Z,83.80
2018-12-06T00:13:10.487Z,82.68
2018-12-06T00:17:54.690Z,84.03
2018-12-06T00:22:39.847Z,82.79
2018-12-06T00:27:25.033Z,81.87
2018-12-06T00:32:10.480Z,80.89
2018-12-06T00:36:55.516Z,79.87
2018-12-06T00:41:40.792Z,80.83
2018-12-06T00:46:26.017Z,81.07
2018-12-06T00:51:11.260Z,82.82
2018-12-06T00:55:56.397Z,83.24
2018-12-06T01:00:41.589Z,82.92
2018-12-06T01:05:27.303Z,82.79
2018-12-06T01:10:12.441Z,83.58
2018-12-06T01:14:57.692Z,83.43
2018-12-06T01:19:42.878Z,83.27
2018-12-06T01:24:28.061Z,84.10
2018-12-06T01:29:13.254Z,84.02
2018-12-06T01:33:57.972Z,84.10
2018-12-06T01:38:43.872Z,83.36
2018-12-06T01:43:28.306Z,83.38
2018-12-06T01:48:13.981Z,82.52
2018-12-06T01:52:59.609Z,82.11
2018-12-06T01:57:44.770Z,80.82
2018-12-06T02:02:30.179Z,80.35
2018-12-06T02:07:15.453Z,80.61
2018-12-06T02:12:00.732Z,79.02
2018-12-06T02:16:45.930Z,78.43
2018-12-06T02:21:31.305Z,77.70
2018-12-06T02:26:16.489Z,76.48
2018-12-06T02:31:01.701Z,76.36
2018-12-06T02:35:46.833Z,75.85
2018-12-06T02:40:32.178Z,75.56
2018-12-06T02:45:19.450Z,75.63
2018-12-06T02:50:04.954Z,75.10
2018-12-06T02:54:49.954Z,75.20
2018-12-06T02:59:35.157Z,75.24
2018-12-06T03:04:19.316Z,75.36
2018-12-06T03:09:10.457Z,76.93
2018-12-06T03:13:54.741Z,76.66
2018-12-06T03:18:40.759Z,76.69
2018-12-06T03:23:27.253Z,76.58
2018-12-06T03:28:12.950Z,76.61
2018-12-06T03:32:57.395Z,76.35
2018-12-06T03:37:42.580Z,76.79
2018-12-06T03:42:27.956Z,76.98
2018-12-06T03:47:13.197Z,76.84
2018-12-06T03:52:03.238Z,77.24
2018-12-06T03:56:48.972Z,78.47
2018-12-06T04:01:34.670Z,80.10
2018-12-06T04:06:18.869Z,80.98
2018-12-06T04:11:04.977Z,82.03
2018-12-06T04:15:50.248Z,82.87
2018-12-06T04:20:35.133Z,83.31
2018-12-06T04:30:33.144Z,83.68
2018-12-06T04:35:18.683Z,85.08
2018-12-06T04:40:02.864Z,85.89
2018-12-06T04:44:48.246Z,86.37
2018-12-06T04:49:34.460Z,86.38
2018-12-06T04:54:20.846Z,86.24
2018-12-06T04:59:05.299Z,85.50
2018-12-06T05:03:51.757Z,85.39
2018-12-06T05:08:36.871Z,84.37
2018-12-06T05:13:21.016Z,84.30
2018-12-06T05:18:06.552Z,83.58
2018-12-06T05:22:53.209Z,83.57
2018-12-06T05:27:37.343Z,83.14
2018-12-06T05:32:22.436Z,82.57
2018-12-06T05:37:08.320Z,82.55
2018-12-06T05:41:54.030Z,81.79
2018-12-06T05:46:38.262Z,81.66
2018-12-06T05:51:22.586Z,80.68
2018-12-06T05:56:07.838Z,80.43
2018-12-06T06:00:54.135Z,80.37
2018-12-06T06:05:39.448Z,79.68
2018-12-06T06:10:25.349Z,79.96
2018-12-06T06:15:10.669Z,79.30
2018-12-06T06:19:57.003Z,78.10
2018-12-06T06:24:41.457Z,77.14
2018-12-06T06:29:26.148Z,77.80
2018-12-06T06:34:14.376Z,76.79
2018-12-06T06:38:58.514Z,82.92
2018-12-06T06:43:43.704Z,77.55
2018-12-06T06:48:29.078Z,76.29
2018-12-06T06:53:14.299Z,73.83
2018-12-06T06:57:59.537Z,73.91
2018-12-06T07:02:45.027Z,73.61
2018-12-06T07:07:30.233Z,73.84
2018-12-06T07:12:15.416Z,73.15
2018-12-06T07:17:00.501Z,71.15
2018-12-06T07:21:48.036Z,69.76
2018-12-06T07:26:33.227Z,70.30
2018-12-06T07:31:17.589Z,68.98
2018-12-06T07:36:02.785Z,69.34
2018-12-06T07:40:49.045Z,69.69
2018-12-06T07:45:34.297Z,69.27
2018-12-06T07:50:18.578Z,66.40
2018-12-06T07:55:04.119Z,66.88
2018-12-06T07:59:49.465Z,67.40
2018-12-06T08:04:37.714Z,67.25
2018-12-06T08:09:23.012Z,65.62
2018-12-06T08:14:08.856Z,65.93
2018-12-06T08:18:54.187Z,65.80
2018-12-06T08:23:39.856Z,64.12
2018-12-06T08:28:24.932Z,64.19
2018-12-06T08:33:10.208Z,63.66
2018-12-06T08:37:55.393Z,63.29
2018-12-06T08:42:45.698Z,61.93
2018-12-06T08:47:28.083Z,59.47
2018-12-06T08:52:13.493Z,59.07
2018-12-06T08:56:58.817Z,58.69
2018-12-06T09:01:45.169Z,58.55
2018-12-06T09:06:29.463Z,57.09
2018-12-06T09:11:15.778Z,56.20
2018-12-06T09:15:59.987Z,55.86
2018-12-06T09:20:45.414Z,54.68
2018-12-06T09:25:30.506Z,55.02
2018-12-06T09:30:15.957Z,53.21
2018-12-06T09:35:01.084Z,53.28
2018-12-06T09:39:57.518Z,52.88
2018-12-06T09:44:41.778Z,52.47
2018-12-06T09:49:27.021Z,52.39
2018-12-06T09:54:13.411Z,49.41
2018-12-06T09:58:57.633Z,49.17
2018-12-06T10:03:46.157Z,49.62
2018-12-06T10:08:30.414Z,49.45
2018-12-06T10:13:15.768Z,49.73
2018-12-06T10:18:01.017Z,49.12
2018-12-06T10:22:46.928Z,48.73
2018-12-06T10:27:31.975Z,48.47
2018-12-06T10:32:16.263Z,47.62
2018-12-06T10:37:01.477Z,46.13
2018-12-06T10:41:49.813Z,46.78
2018-12-06T10:46:34.967Z,46.69
2018-12-06T10:51:31.235Z,47.91
2018-12-06T10:56:16.383Z,44.81
2018-12-06T11:01:07.045Z,44.99
2018-12-06T11:05:51.323Z,45.62
2018-12-06T11:10:39.744Z,45.28
2018-12-06T11:15:24.933Z,45.78
2018-12-06T11:20:11.208Z,43.17
2018-12-06T11:24:56.332Z,43.81
2018-12-06T11:29:41.580Z,45.82
2018-12-06T11:34:26.781Z,45.20
2018-12-06T11:39:12.022Z,44.25
2018-12-06T11:43:57.471Z,44.02
2018-12-06T11:48:41.923Z,43.38
2018-12-06T11:58:13.353Z,43.02
2018-12-06T12:02:58.915Z,43.68
2018-12-06T12:07:44.514Z,44.53
2018-12-06T12:12:32.667Z,45.99
2018-12-06T12:17:17.893Z,46.91
2018-12-06T12:22:02.182Z,46.23
2018-12-06T12:26:49.564Z,47.64
2018-12-06T12:31:34.856Z,49.65
2018-12-06T12:36:20.072Z,49.04
2018-12-06T12:41:08.095Z,51.20
2018-12-06T12:45:53.534Z,51.57
2018-12-06T12:50:39.964Z,51.85
2018-12-06T12:55:26.133Z,52.39
2018-12-06T13:00:10.473Z,52.58
2018-12-06T13:04:55.632Z,52.62
2018-12-06T13:09:41.996Z,53.50
2018-12-06T13:14:27.309Z,53.70
2018-12-06T13:19:12.582Z,54.88
2018-12-06T13:23:58.094Z,54.33
2018-12-06T13:28:43.262Z,54.49
2018-12-06T13:33:28.475Z,54.93
2018-12-06T13:38:13.655Z,54.80
2018-12-06T13:42:58.300Z,54.42
2018-12-06T13:47:43.538Z,55.24
2018-12-06T13:52:28.831Z,55.58
2018-12-06T13:57:18.785Z,56.32
2018-12-06T14:02:02.306Z,55.69
2018-12-06T14:06:46.563Z,56.59
2018-12-06T14:11:32.903Z,56.67
2018-12-06T14:16:18.088Z,56.40
2018-12-06T14:21:08.949Z,56.65
2018-12-06T14:25:53.153Z,56.86
2018-12-06T14:30:39.612Z,56.69
2018-12-06T14:35:24.706Z,57.50
2018-12-06T14:40:09.993Z,57.76
2018-12-06T14:44:55.262Z,58.52
2018-12-06T14:49:43.645Z,59.03
2018-12-06T14:54:28.888Z,58.98
2018-12-06T14:59:14.092Z,59.09
2018-12-06T15:03:59.380Z,59.00
2018-12-06T15:08:43.699Z,60.22
2018-12-06T15:13:29.140Z,60.17
2018-12-06T15:18:15.383Z,60.17
2018-12-06T15:23:06.879Z,59.81
2018-12-06T15:27:51.656Z,61.04
2018-12-06T15:32:40.850Z,60.91
2018-12-06T15:37:26.159Z,61.20
2018-12-06T15:42:12.559Z,61.77
2018-12-06T15:46:57.860Z,61.50
2018-12-06T15:51:43.205Z,61.05
2018-12-06T15:56:28.914Z,59.77
2018-12-06T16:01:14.183Z,59.46
2018-12-06T16:05:59.021Z,59.69
2018-12-06T16:10:44.670Z,59.64
2018-12-06T16:15:28.928Z,59.63
2018-12-06T16:20:14.345Z,60.00
2018-12-06T16:25:00.040Z,59.84
2018-12-06T16:29:51.343Z,60.76
2018-12-06T16:39:45.717Z,61.69
2018-12-06T16:44:30.941Z,60.99
2018-12-06T16:49:16.988Z,60.73
2018-12-06T16:54:02.248Z,61.74
2018-12-06T16:58:46.573Z,62.36
2018-12-06T17:03:31.868Z,62.93
2018-12-06T17:08:16.177Z,63.68
2018-12-06T17:13:01.631Z,64.98
2018-12-06T17:17:47.015Z,64.37
2018-12-06T17:22:32.425Z,63.96
2018-12-06T17:27:18.698Z,64.12
2018-12-06T17:32:03.261Z,64.18
2018-12-06T17:36:47.889Z,66.39
2018-12-06T17:41:35.109Z,68.83
2018-12-06T17:46:19.258Z,68.87
2018-12-06T17:51:04.133Z,70.20
2018-12-06T17:55:52.701Z,70.17
2018-12-06T18:00:41.665Z,70.53
2018-12-06T18:05:27.603Z,69.95
2018-12-06T18:10:12.609Z,70.85
2018-12-06T18:14:58.930Z,69.78
2018-12-06T18:19:45.570Z,70.81
2018-12-06T18:24:29.926Z,71.74
2018-12-06T18:29:15.598Z,71.05
2018-12-06T18:34:01.343Z,70.90
2018-12-06T18:38:46.868Z,72.42
2018-12-06T18:43:32.218Z,73.67
2018-12-06T18:48:17.116Z,73.79
2018-12-06T18:53:03.480Z,73.78
2018-12-06T18:57:47.762Z,73.22
2018-12-06T19:02:34.203Z,73.63
2018-12-06T19:07:19.474Z,74.41
2018-12-06T19:12:04.856Z,74.49
2018-12-06T19:16:49.054Z,75.20
2018-12-06T19:21:37.897Z,74.56
2018-12-06T19:26:25.638Z,75.23
2018-12-06T19:31:12.806Z,75.58
2018-12-06T19:36:00.341Z,74.94
2018-12-06T19:45:42.666Z,76.71
2018-12-06T19:50:28.535Z,76.20
2018-12-06T19:55:23.497Z,76.32
2018-12-06T20:00:09.665Z,76.80
2018-12-06T20:04:56.232Z,76.79
2018-12-06T20:09:41.240Z,76.30
2018-12-06T20:14:29.455Z,76.66
2018-12-06T20:19:15.090Z,78.17
2018-12-06T20:24:00.310Z,77.69
2018-12-06T20:28:47.267Z,77.64
2018-12-06T20:33:32.581Z,79.73
2018-12-06T20:38:18.621Z,79.12
2018-12-06T20:43:03.850Z,78.67
2018-12-06T20:47:48.995Z,80.49
2018-12-06T20:52:34.486Z,82.33
2018-12-06T20:57:19.049Z,81.59
2018-12-06T21:02:05.766Z,82.11
2018-12-06T21:06:50.293Z,81.60
2018-12-06T21:11:37.178Z,80.28
2018-12-06T21:16:22.205Z,79.83
2018-12-06T21:21:08.652Z,80.26
2018-12-06T21:25:53.622Z,80.67
2018-12-06T21:30:40.998Z,80.36
2018-12-06T21:35:26.059Z,79.89
2018-12-06T21:40:10.461Z,79.56
2018-12-06T21:44:56.232Z,78.73
2018-12-06T21:49:41.606Z,79.86
2018-12-06T21:54:27.557Z,79.69
2018-12-06T21:59:14.229Z,80.34
2018-12-06T22:03:58.460Z,80.27
2018-12-06T22:08:50.062Z,79.78
2018-12-06T22:13:34.840Z,79.15
2018-12-06T22:18:21.560Z,80.27
2018-12-06T22:23:06.324Z,79.58
2018-12-06T22:27:51.496Z,79.56
2018-12-06T22:32:35.794Z,79.27
2018-12-06T22:37:21.178Z,79.42
2018-12-06T22:42:06.050Z,80.08
2018-12-06T22:46:51.793Z,80.82
2018-12-06T22:51:38.484Z,80.08
2018-12-06T22:56:24.163Z,80.58
2018-12-06T23:01:11.472Z,80.75
2018-12-06T23:05:56.369Z,81.08
2018-12-06T23:10:41.696Z,81.96
2018-12-06T23:15:25.921Z,81.18
2018-12-06T23:20:15.492Z,81.71
2018-12-06T23:24:59.940Z,81.23
2018-12-06T23:29:47.402Z,81.41
2018-12-06T23:34:31.504Z,81.22
2018-12-06T23:39:16.898Z,81.56
2018-12-06T23:44:01.064Z,82.17
2018-12-06T23:48:46.288Z,85.59
2018-12-06T23:53:31.804Z,87.78
2018-12-06T23:58:17.745Z,88.53
